sensor_id;sensor_type;location;lat;lon;timestamp;temperature;humidity
74901;DHT22;63461;51.416;6.758;2023-05-07T00:01:32;15.70;99.90
74901;DHT22;63461;51.416;6.758;2023-05-07T00:03:58;15.70;99.90
74901;DHT22;63461;51.416;6.758;2023-05-07T00:06:24;15.70;99.90
74901;DHT22;63461;51.416;6.758;2023-05-07T00:08:51;15.70;99.90
74901;DHT22;63461;51.416;6.758;2023-05-07T00:11:17;15.70;99.90
74901;DHT22;63461;51.416;6.758;2023-05-07T00:13:44;15.60;99.90
74901;DHT22;63461;51.416;6.758;2023-05-07T00:16:10;15.70;99.90
74901;DHT22;63461;51.416;6.758;2023-05-07T00:18:35;15.60;99.90
74901;DHT22;63461;51.416;6.758;2023-05-07T00:21:01;15.60;99.90
74901;DHT22;63461;51.416;6.758;2023-05-07T00:23:27;15.60;99.90
74901;DHT22;63461;51.416;6.758;2023-05-07T00:25:52;15.60;99.90
74901;DHT22;63461;51.416;6.758;2023-05-07T00:28:18;15.60;99.90
74901;DHT22;63461;51.416;6.758;2023-05-07T00:30:44;15.60;99.90
74901;DHT22;63461;51.416;6.758;2023-05-07T00:33:10;15.60;99.90
74901;DHT22;63461;51.416;6.758;2023-05-07T00:35:36;15.50;99.90
74901;DHT22;63461;51.416;6.758;2023-05-07T00:38:02;15.60;99.90
74901;DHT22;63461;51.416;6.758;2023-05-07T00:40:28;15.50;99.90
74901;DHT22;63461;51.416;6.758;2023-05-07T00:42:53;15.50;99.90
74901;DHT22;63461;51.416;6.758;2023-05-07T00:45:26;15.50;99.90
74901;DHT22;63461;51.416;6.758;2023-05-07T00:47:57;15.50;99.90
74901;DHT22;63461;51.416;6.758;2023-05-07T00:50:24;15.50;99.90
74901;DHT22;63461;51.416;6.758;2023-05-07T00:52:50;15.50;99.90
74901;DHT22;63461;51.416;6.758;2023-05-07T00:55:16;15.50;99.90
74901;DHT22;63461;51.416;6.758;2023-05-07T00:57:42;15.50;99.90
74901;DHT22;63461;51.416;6.758;2023-05-07T01:00:09;15.40;99.90
74901;DHT22;63461;51.416;6.758;2023-05-07T01:02:36;15.50;99.90
74901;DHT22;63461;51.416;6.758;2023-05-07T01:05:03;15.50;99.90
74901;DHT22;63461;51.416;6.758;2023-05-07T01:07:32;15.40;99.90
74901;DHT22;63461;51.416;6.758;2023-05-07T01:09:58;15.40;99.90
74901;DHT22;63461;51.416;6.758;2023-05-07T01:12:25;15.40;99.90
74901;DHT22;63461;51.416;6.758;2023-05-07T01:14:51;15.40;99.90
74901;DHT22;63461;51.416;6.758;2023-05-07T01:17:17;15.40;99.90
74901;DHT22;63461;51.416;6.758;2023-05-07T01:19:45;15.30;99.90
74901;DHT22;63461;51.416;6.758;2023-05-07T01:22:12;15.30;99.90
74901;DHT22;63461;51.416;6.758;2023-05-07T01:24:47;15.30;99.90
74901;DHT22;63461;51.416;6.758;2023-05-07T01:27:15;15.40;99.90
74901;DHT22;63461;51.416;6.758;2023-05-07T01:29:41;15.30;99.90
74901;DHT22;63461;51.416;6.758;2023-05-07T01:32:07;15.30;99.90
74901;DHT22;63461;51.416;6.758;2023-05-07T01:34:34;15.30;99.90
74901;DHT22;63461;51.416;6.758;2023-05-07T01:37:01;15.30;99.90
74901;DHT22;63461;51.416;6.758;2023-05-07T01:39:29;15.20;99.90
74901;DHT22;63461;51.416;6.758;2023-05-07T01:41:56;15.20;99.90
74901;DHT22;63461;51.416;6.758;2023-05-07T01:44:23;15.20;99.90
74901;DHT22;63461;51.416;6.758;2023-05-07T01:46:50;15.20;99.90
74901;DHT22;63461;51.416;6.758;2023-05-07T01:49:16;15.20;99.90
74901;DHT22;63461;51.416;6.758;2023-05-07T01:51:43;15.20;99.90
74901;DHT22;63461;51.416;6.758;2023-05-07T01:54:09;15.10;99.90
74901;DHT22;63461;51.416;6.758;2023-05-07T01:56:35;15.20;99.90
74901;DHT22;63461;51.416;6.758;2023-05-07T01:59:02;15.20;99.90
74901;DHT22;63461;51.416;6.758;2023-05-07T02:01:28;15.10;99.90
74901;DHT22;63461;51.416;6.758;2023-05-07T02:03:54;15.10;99.90
74901;DHT22;63461;51.416;6.758;2023-05-07T02:06:24;15.10;99.90
74901;DHT22;63461;51.416;6.758;2023-05-07T02:08:54;15.10;99.90
74901;DHT22;63461;51.416;6.758;2023-05-07T02:11:19;15.10;99.90
74901;DHT22;63461;51.416;6.758;2023-05-07T02:13:45;15.00;99.90
74901;DHT22;63461;51.416;6.758;2023-05-07T02:16:11;15.00;99.90
74901;DHT22;63461;51.416;6.758;2023-05-07T02:18:40;15.00;99.90
74901;DHT22;63461;51.416;6.758;2023-05-07T02:21:05;15.00;99.90
74901;DHT22;63461;51.416;6.758;2023-05-07T02:23:31;15.00;99.90
74901;DHT22;63461;51.416;6.758;2023-05-07T02:25:58;15.00;99.90
74901;DHT22;63461;51.416;6.758;2023-05-07T02:28:23;15.00;99.90
74901;DHT22;63461;51.416;6.758;2023-05-07T02:30:53;15.00;99.90
74901;DHT22;63461;51.416;6.758;2023-05-07T02:33:20;15.00;99.90
74901;DHT22;63461;51.416;6.758;2023-05-07T02:35:47;15.00;99.90
74901;DHT22;63461;51.416;6.758;2023-05-07T02:38:14;15.00;99.90
74901;DHT22;63461;51.416;6.758;2023-05-07T02:40:40;15.00;99.90
74901;DHT22;63461;51.416;6.758;2023-05-07T02:43:08;15.00;99.90
74901;DHT22;63461;51.416;6.758;2023-05-07T02:45:34;15.00;99.90
74901;DHT22;63461;51.416;6.758;2023-05-07T02:48:01;15.00;99.90
74901;DHT22;63461;51.416;6.758;2023-05-07T02:50:27;15.00;99.90
74901;DHT22;63461;51.416;6.758;2023-05-07T02:52:54;14.90;99.90
74901;DHT22;63461;51.416;6.758;2023-05-07T02:55:20;14.90;99.90
74901;DHT22;63461;51.416;6.758;2023-05-07T02:57:45;14.90;99.90
74901;DHT22;63461;51.416;6.758;2023-05-07T03:00:17;14.90;99.90
74901;DHT22;63461;51.416;6.758;2023-05-07T03:02:51;14.90;99.90
74901;DHT22;63461;51.416;6.758;2023-05-07T03:05:16;14.90;99.90
74901;DHT22;63461;51.416;6.758;2023-05-07T03:07:42;14.90;99.90
74901;DHT22;63461;51.416;6.758;2023-05-07T03:10:11;14.90;99.90
74901;DHT22;63461;51.416;6.758;2023-05-07T03:12:37;15.00;99.90
74901;DHT22;63461;51.416;6.758;2023-05-07T03:15:03;14.90;99.90
74901;DHT22;63461;51.416;6.758;2023-05-07T03:17:30;14.90;99.90
74901;DHT22;63461;51.416;6.758;2023-05-07T03:19:56;14.90;99.90
74901;DHT22;63461;51.416;6.758;2023-05-07T03:22:22;14.90;99.90
74901;DHT22;63461;51.416;6.758;2023-05-07T03:24:48;14.90;99.90
74901;DHT22;63461;51.416;6.758;2023-05-07T03:27:14;14.90;99.90
74901;DHT22;63461;51.416;6.758;2023-05-07T03:29:40;14.90;99.90
74901;DHT22;63461;51.416;6.758;2023-05-07T03:32:06;14.80;99.90
74901;DHT22;63461;51.416;6.758;2023-05-07T03:34:32;14.90;99.90
74901;DHT22;63461;51.416;6.758;2023-05-07T03:36:58;14.90;99.90
74901;DHT22;63461;51.416;6.758;2023-05-07T03:39:24;14.80;99.90
74901;DHT22;63461;51.416;6.758;2023-05-07T03:41:50;14.80;99.90
74901;DHT22;63461;51.416;6.758;2023-05-07T03:44:15;14.90;99.90
74901;DHT22;63461;51.416;6.758;2023-05-07T03:46:41;14.80;99.90
74901;DHT22;63461;51.416;6.758;2023-05-07T03:49:09;14.80;99.90
74901;DHT22;63461;51.416;6.758;2023-05-07T03:51:35;14.80;99.90
74901;DHT22;63461;51.416;6.758;2023-05-07T03:54:02;14.80;99.90
74901;DHT22;63461;51.416;6.758;2023-05-07T03:56:31;14.80;99.90
74901;DHT22;63461;51.416;6.758;2023-05-07T03:58:58;14.80;99.90
74901;DHT22;63461;51.416;6.758;2023-05-07T04:01:24;14.80;99.90
74901;DHT22;63461;51.416;6.758;2023-05-07T04:03:50;14.80;99.90
74901;DHT22;63461;51.416;6.758;2023-05-07T04:06:16;14.80;99.90
74901;DHT22;63461;51.416;6.758;2023-05-07T04:08:47;14.80;99.90
74901;DHT22;63461;51.416;6.758;2023-05-07T04:11:13;14.80;99.90
74901;DHT22;63461;51.416;6.758;2023-05-07T04:13:39;14.80;99.90
74901;DHT22;63461;51.416;6.758;2023-05-07T04:16:08;14.80;99.90
74901;DHT22;63461;51.416;6.758;2023-05-07T04:18:35;14.80;99.90
74901;DHT22;63461;51.416;6.758;2023-05-07T04:21:01;14.80;99.90
74901;DHT22;63461;51.416;6.758;2023-05-07T04:23:27;14.80;99.90
74901;DHT22;63461;51.416;6.758;2023-05-07T04:25:54;14.80;99.90
74901;DHT22;63461;51.416;6.758;2023-05-07T04:28:30;14.80;99.90
74901;DHT22;63461;51.416;6.758;2023-05-07T04:30:55;14.80;99.90
74901;DHT22;63461;51.416;6.758;2023-05-07T04:33:21;14.80;99.90
74901;DHT22;63461;51.416;6.758;2023-05-07T04:35:49;14.80;99.90
74901;DHT22;63461;51.416;6.758;2023-05-07T04:38:14;14.80;99.90
74901;DHT22;63461;51.416;6.758;2023-05-07T04:40:41;14.80;99.90
74901;DHT22;63461;51.416;6.758;2023-05-07T04:43:10;14.80;99.90
74901;DHT22;63461;51.416;6.758;2023-05-07T04:45:43;14.80;99.90
74901;DHT22;63461;51.416;6.758;2023-05-07T04:48:09;14.80;99.90
74901;DHT22;63461;51.416;6.758;2023-05-07T04:50:37;14.90;99.90
74901;DHT22;63461;51.416;6.758;2023-05-07T04:53:03;14.90;99.90
74901;DHT22;63461;51.416;6.758;2023-05-07T04:55:29;14.90;99.90
74901;DHT22;63461;51.416;6.758;2023-05-07T04:57:56;14.90;99.90
74901;DHT22;63461;51.416;6.758;2023-05-07T05:00:23;14.90;99.90
74901;DHT22;63461;51.416;6.758;2023-05-07T05:02:50;14.80;99.90
74901;DHT22;63461;51.416;6.758;2023-05-07T05:05:19;14.90;99.90
74901;DHT22;63461;51.416;6.758;2023-05-07T05:07:46;14.90;99.90
74901;DHT22;63461;51.416;6.758;2023-05-07T05:10:12;14.90;99.90
74901;DHT22;63461;51.416;6.758;2023-05-07T05:12:40;14.90;99.90
74901;DHT22;63461;51.416;6.758;2023-05-07T05:15:07;14.90;99.90
74901;DHT22;63461;51.416;6.758;2023-05-07T05:17:33;14.90;99.90
74901;DHT22;63461;51.416;6.758;2023-05-07T05:20:02;14.90;99.90
74901;DHT22;63461;51.416;6.758;2023-05-07T05:22:28;14.90;99.90
74901;DHT22;63461;51.416;6.758;2023-05-07T05:24:56;14.90;99.90
74901;DHT22;63461;51.416;6.758;2023-05-07T05:27:22;14.90;99.90
74901;DHT22;63461;51.416;6.758;2023-05-07T05:29:48;14.90;99.90
74901;DHT22;63461;51.416;6.758;2023-05-07T05:32:14;14.90;99.90
74901;DHT22;63461;51.416;6.758;2023-05-07T05:34:40;14.90;99.90
74901;DHT22;63461;51.416;6.758;2023-05-07T05:37:06;14.90;99.90
74901;DHT22;63461;51.416;6.758;2023-05-07T05:39:32;15.00;99.90
74901;DHT22;63461;51.416;6.758;2023-05-07T05:41:58;15.00;99.90
74901;DHT22;63461;51.416;6.758;2023-05-07T05:44:24;15.00;99.90
74901;DHT22;63461;51.416;6.758;2023-05-07T05:46:50;15.00;99.90
74901;DHT22;63461;51.416;6.758;2023-05-07T05:49:16;15.10;99.90
74901;DHT22;63461;51.416;6.758;2023-05-07T05:51:43;15.10;99.90
74901;DHT22;63461;51.416;6.758;2023-05-07T05:54:09;15.20;99.90
74901;DHT22;63461;51.416;6.758;2023-05-07T05:56:36;15.20;99.90
74901;DHT22;63461;51.416;6.758;2023-05-07T05:59:02;15.20;99.90
74901;DHT22;63461;51.416;6.758;2023-05-07T06:01:28;15.30;99.90
74901;DHT22;63461;51.416;6.758;2023-05-07T06:03:57;15.30;99.90
74901;DHT22;63461;51.416;6.758;2023-05-07T06:06:22;15.40;99.90
74901;DHT22;63461;51.416;6.758;2023-05-07T06:08:48;15.40;99.90
74901;DHT22;63461;51.416;6.758;2023-05-07T06:11:19;15.60;99.90
74901;DHT22;63461;51.416;6.758;2023-05-07T06:13:46;15.60;99.90
74901;DHT22;63461;51.416;6.758;2023-05-07T06:16:12;15.70;99.90
74901;DHT22;63461;51.416;6.758;2023-05-07T06:18:38;15.70;99.90
74901;DHT22;63461;51.416;6.758;2023-05-07T06:21:04;15.80;99.90
74901;DHT22;63461;51.416;6.758;2023-05-07T06:23:32;15.80;99.90
74901;DHT22;63461;51.416;6.758;2023-05-07T06:25:59;15.90;99.90
74901;DHT22;63461;51.416;6.758;2023-05-07T06:28:30;15.90;99.90
74901;DHT22;63461;51.416;6.758;2023-05-07T06:31:18;15.90;99.90
74901;DHT22;63461;51.416;6.758;2023-05-07T06:33:55;15.90;99.90
74901;DHT22;63461;51.416;6.758;2023-05-07T06:36:22;16.00;99.90
74901;DHT22;63461;51.416;6.758;2023-05-07T06:38:48;16.10;99.90
74901;DHT22;63461;51.416;6.758;2023-05-07T06:41:15;16.10;99.90
74901;DHT22;63461;51.416;6.758;2023-05-07T06:43:41;16.20;99.90
74901;DHT22;63461;51.416;6.758;2023-05-07T06:46:27;16.30;99.90
74901;DHT22;63461;51.416;6.758;2023-05-07T06:48:52;16.30;99.90
74901;DHT22;63461;51.416;6.758;2023-05-07T06:51:19;16.40;99.90
74901;DHT22;63461;51.416;6.758;2023-05-07T06:53:45;16.40;99.90
74901;DHT22;63461;51.416;6.758;2023-05-07T06:56:11;16.40;99.90
74901;DHT22;63461;51.416;6.758;2023-05-07T06:58:38;16.40;99.90
74901;DHT22;63461;51.416;6.758;2023-05-07T07:01:05;16.40;99.90
74901;DHT22;63461;51.416;6.758;2023-05-07T07:03:32;16.50;99.90
74901;DHT22;63461;51.416;6.758;2023-05-07T07:05:58;16.50;99.90
74901;DHT22;63461;51.416;6.758;2023-05-07T07:08:25;16.60;99.90
74901;DHT22;63461;51.416;6.758;2023-05-07T07:10:51;16.60;99.90
74901;DHT22;63461;51.416;6.758;2023-05-07T07:13:17;16.70;99.90
74901;DHT22;63461;51.416;6.758;2023-05-07T07:15:43;16.70;99.90
74901;DHT22;63461;51.416;6.758;2023-05-07T07:18:09;16.80;99.90
74901;DHT22;63461;51.416;6.758;2023-05-07T07:20:36;16.80;99.90
74901;DHT22;63461;51.416;6.758;2023-05-07T07:23:02;16.80;99.90
74901;DHT22;63461;51.416;6.758;2023-05-07T07:25:28;16.90;99.90
74901;DHT22;63461;51.416;6.758;2023-05-07T07:27:54;16.90;99.90
74901;DHT22;63461;51.416;6.758;2023-05-07T07:30:22;16.80;99.90
74901;DHT22;63461;51.416;6.758;2023-05-07T07:32:48;16.90;99.90
74901;DHT22;63461;51.416;6.758;2023-05-07T07:35:15;16.90;99.90
74901;DHT22;63461;51.416;6.758;2023-05-07T07:37:42;16.90;99.90
74901;DHT22;63461;51.416;6.758;2023-05-07T07:40:08;17.00;99.90
74901;DHT22;63461;51.416;6.758;2023-05-07T07:42:36;17.00;99.90
74901;DHT22;63461;51.416;6.758;2023-05-07T07:45:02;17.00;99.90
74901;DHT22;63461;51.416;6.758;2023-05-07T07:47:33;17.10;99.90
74901;DHT22;63461;51.416;6.758;2023-05-07T07:49:59;17.00;99.90
74901;DHT22;63461;51.416;6.758;2023-05-07T07:52:25;17.00;99.90
74901;DHT22;63461;51.416;6.758;2023-05-07T07:54:51;17.10;99.90
74901;DHT22;63461;51.416;6.758;2023-05-07T07:57:17;17.10;99.90
74901;DHT22;63461;51.416;6.758;2023-05-07T07:59:42;17.20;99.90
74901;DHT22;63461;51.416;6.758;2023-05-07T08:02:10;17.30;99.90
74901;DHT22;63461;51.416;6.758;2023-05-07T08:04:37;17.40;99.90
74901;DHT22;63461;51.416;6.758;2023-05-07T08:07:04;17.40;99.90
74901;DHT22;63461;51.416;6.758;2023-05-07T08:09:34;17.50;99.90
74901;DHT22;63461;51.416;6.758;2023-05-07T08:12:02;17.60;99.90
74901;DHT22;63461;51.416;6.758;2023-05-07T08:14:31;17.80;99.90
74901;DHT22;63461;51.416;6.758;2023-05-07T08:16:57;17.90;99.90
74901;DHT22;63461;51.416;6.758;2023-05-07T08:19:23;18.00;99.90
74901;DHT22;63461;51.416;6.758;2023-05-07T08:21:49;18.10;99.90
74901;DHT22;63461;51.416;6.758;2023-05-07T08:24:17;18.10;99.90
74901;DHT22;63461;51.416;6.758;2023-05-07T08:26:44;18.10;99.90
74901;DHT22;63461;51.416;6.758;2023-05-07T08:29:11;18.20;99.90
74901;DHT22;63461;51.416;6.758;2023-05-07T08:31:37;18.20;99.90
74901;DHT22;63461;51.416;6.758;2023-05-07T08:34:05;18.30;99.90
74901;DHT22;63461;51.416;6.758;2023-05-07T08:36:32;18.30;99.90
74901;DHT22;63461;51.416;6.758;2023-05-07T08:38:59;18.40;99.90
74901;DHT22;63461;51.416;6.758;2023-05-07T08:41:25;18.50;99.90
74901;DHT22;63461;51.416;6.758;2023-05-07T08:43:51;18.50;99.90
74901;DHT22;63461;51.416;6.758;2023-05-07T08:46:19;18.60;99.90
74901;DHT22;63461;51.416;6.758;2023-05-07T08:48:47;18.50;99.90
74901;DHT22;63461;51.416;6.758;2023-05-07T08:51:16;18.60;99.90
74901;DHT22;63461;51.416;6.758;2023-05-07T08:53:43;18.60;99.90
74901;DHT22;63461;51.416;6.758;2023-05-07T08:56:13;18.60;99.90
74901;DHT22;63461;51.416;6.758;2023-05-07T08:58:42;18.70;99.90
74901;DHT22;63461;51.416;6.758;2023-05-07T09:01:10;18.60;99.90
74901;DHT22;63461;51.416;6.758;2023-05-07T09:03:38;18.70;99.90
74901;DHT22;63461;51.416;6.758;2023-05-07T09:06:05;18.70;99.90
74901;DHT22;63461;51.416;6.758;2023-05-07T09:08:33;18.80;99.90
74901;DHT22;63461;51.416;6.758;2023-05-07T09:11:02;18.90;99.90
74901;DHT22;63461;51.416;6.758;2023-05-07T09:13:29;18.90;99.90
74901;DHT22;63461;51.416;6.758;2023-05-07T09:15:55;19.10;99.90
74901;DHT22;63461;51.416;6.758;2023-05-07T09:18:25;19.10;99.90
74901;DHT22;63461;51.416;6.758;2023-05-07T09:20:52;19.10;99.90
74901;DHT22;63461;51.416;6.758;2023-05-07T09:23:20;19.10;99.90
74901;DHT22;63461;51.416;6.758;2023-05-07T09:25:46;19.10;99.90
74901;DHT22;63461;51.416;6.758;2023-05-07T09:28:19;19.10;99.90
74901;DHT22;63461;51.416;6.758;2023-05-07T09:30:45;19.20;99.90
74901;DHT22;63461;51.416;6.758;2023-05-07T09:33:12;19.30;99.90
74901;DHT22;63461;51.416;6.758;2023-05-07T09:35:41;19.30;99.90
74901;DHT22;63461;51.416;6.758;2023-05-07T09:38:12;19.30;99.90
74901;DHT22;63461;51.416;6.758;2023-05-07T09:40:38;19.30;99.90
74901;DHT22;63461;51.416;6.758;2023-05-07T09:43:13;19.40;99.90
74901;DHT22;63461;51.416;6.758;2023-05-07T09:45:46;19.50;99.90
74901;DHT22;63461;51.416;6.758;2023-05-07T09:48:18;19.60;99.90
74901;DHT22;63461;51.416;6.758;2023-05-07T09:50:49;19.80;99.90
74901;DHT22;63461;51.416;6.758;2023-05-07T09:53:18;19.90;99.90
74901;DHT22;63461;51.416;6.758;2023-05-07T09:55:45;20.00;99.90
74901;DHT22;63461;51.416;6.758;2023-05-07T09:58:12;20.10;99.90
74901;DHT22;63461;51.416;6.758;2023-05-07T10:00:41;20.10;99.90
74901;DHT22;63461;51.416;6.758;2023-05-07T10:03:12;20.10;99.90
74901;DHT22;63461;51.416;6.758;2023-05-07T10:06:03;20.20;99.90
74901;DHT22;63461;51.416;6.758;2023-05-07T10:08:31;20.20;99.90
74901;DHT22;63461;51.416;6.758;2023-05-07T10:10:59;20.20;99.90
74901;DHT22;63461;51.416;6.758;2023-05-07T10:13:27;20.20;99.90
74901;DHT22;63461;51.416;6.758;2023-05-07T10:15:56;20.20;99.90
74901;DHT22;63461;51.416;6.758;2023-05-07T10:18:25;20.20;99.90
74901;DHT22;63461;51.416;6.758;2023-05-07T10:21:11;20.40;99.90
74901;DHT22;63461;51.416;6.758;2023-05-07T10:23:38;20.40;99.90
74901;DHT22;63461;51.416;6.758;2023-05-07T10:26:06;20.60;99.90
74901;DHT22;63461;51.416;6.758;2023-05-07T10:28:37;20.50;99.90
74901;DHT22;63461;51.416;6.758;2023-05-07T10:33:51;20.60;99.90
74901;DHT22;63461;51.416;6.758;2023-05-07T10:36:24;20.70;99.90
74901;DHT22;63461;51.416;6.758;2023-05-07T10:38:52;20.70;99.90
74901;DHT22;63461;51.416;6.758;2023-05-07T10:41:19;20.70;99.90
74901;DHT22;63461;51.416;6.758;2023-05-07T10:43:45;20.90;99.90
74901;DHT22;63461;51.416;6.758;2023-05-07T10:46:32;21.10;99.90
74901;DHT22;63461;51.416;6.758;2023-05-07T10:49:09;21.10;99.90
74901;DHT22;63461;51.416;6.758;2023-05-07T10:51:45;21.20;99.90
74901;DHT22;63461;51.416;6.758;2023-05-07T10:54:26;21.20;99.90
74901;DHT22;63461;51.416;6.758;2023-05-07T10:57:36;21.20;99.90
74901;DHT22;63461;51.416;6.758;2023-05-07T11:05:28;21.20;99.90
74901;DHT22;63461;51.416;6.758;2023-05-07T11:08:06;21.20;99.90
74901;DHT22;63461;51.416;6.758;2023-05-07T11:10:56;21.10;99.90
74901;DHT22;63461;51.416;6.758;2023-05-07T11:13:44;21.10;99.90
74901;DHT22;63461;51.416;6.758;2023-05-07T11:16:24;21.00;99.90
74901;DHT22;63461;51.416;6.758;2023-05-07T11:18:57;21.10;99.90
74901;DHT22;63461;51.416;6.758;2023-05-07T11:21:40;21.10;99.90
74901;DHT22;63461;51.416;6.758;2023-05-07T11:24:42;21.10;99.90
74901;DHT22;63461;51.416;6.758;2023-05-07T11:27:09;21.20;99.90
74901;DHT22;63461;51.416;6.758;2023-05-07T11:29:36;21.30;99.90
74901;DHT22;63461;51.416;6.758;2023-05-07T11:32:08;21.30;99.90
74901;DHT22;63461;51.416;6.758;2023-05-07T11:34:44;21.40;99.90
74901;DHT22;63461;51.416;6.758;2023-05-07T11:37:11;21.40;99.90
74901;DHT22;63461;51.416;6.758;2023-05-07T11:40:08;21.40;99.90
74901;DHT22;63461;51.416;6.758;2023-05-07T11:42:40;21.40;99.90
74901;DHT22;63461;51.416;6.758;2023-05-07T11:45:08;21.60;99.90
74901;DHT22;63461;51.416;6.758;2023-05-07T11:47:34;21.60;99.90
74901;DHT22;63461;51.416;6.758;2023-05-07T11:50:05;21.60;99.90
74901;DHT22;63461;51.416;6.758;2023-05-07T11:52:31;21.60;99.90
74901;DHT22;63461;51.416;6.758;2023-05-07T11:54:59;21.70;99.90
74901;DHT22;63461;51.416;6.758;2023-05-07T11:57:29;21.60;99.90
74901;DHT22;63461;51.416;6.758;2023-05-07T11:59:59;21.60;99.90
74901;DHT22;63461;51.416;6.758;2023-05-07T12:02:38;21.50;99.90
74901;DHT22;63461;51.416;6.758;2023-05-07T12:05:04;21.40;99.90
74901;DHT22;63461;51.416;6.758;2023-05-07T12:07:30;21.50;99.90
74901;DHT22;63461;51.416;6.758;2023-05-07T12:09:57;21.50;99.90
74901;DHT22;63461;51.416;6.758;2023-05-07T12:12:23;21.40;99.90
74901;DHT22;63461;51.416;6.758;2023-05-07T12:14:49;21.40;99.90
74901;DHT22;63461;51.416;6.758;2023-05-07T12:17:16;21.40;99.90
74901;DHT22;63461;51.416;6.758;2023-05-07T12:19:43;21.30;99.90
74901;DHT22;63461;51.416;6.758;2023-05-07T12:22:10;21.20;99.90
74901;DHT22;63461;51.416;6.758;2023-05-07T12:24:47;21.20;99.90
74901;DHT22;63461;51.416;6.758;2023-05-07T12:27:14;21.20;99.90
74901;DHT22;63461;51.416;6.758;2023-05-07T12:29:43;21.20;99.90
74901;DHT22;63461;51.416;6.758;2023-05-07T12:32:19;21.30;99.90
74901;DHT22;63461;51.416;6.758;2023-05-07T12:34:46;21.30;99.90
74901;DHT22;63461;51.416;6.758;2023-05-07T12:37:13;21.30;99.90
74901;DHT22;63461;51.416;6.758;2023-05-07T12:39:44;21.30;99.90
74901;DHT22;63461;51.416;6.758;2023-05-07T12:42:15;21.30;99.90
74901;DHT22;63461;51.416;6.758;2023-05-07T12:44:45;21.30;99.90
74901;DHT22;63461;51.416;6.758;2023-05-07T12:47:11;21.30;99.90
74901;DHT22;63461;51.416;6.758;2023-05-07T12:49:38;21.30;99.90
74901;DHT22;63461;51.416;6.758;2023-05-07T12:52:05;21.30;99.90
74901;DHT22;63461;51.416;6.758;2023-05-07T12:54:32;21.30;99.90
74901;DHT22;63461;51.416;6.758;2023-05-07T12:57:09;21.30;99.90
74901;DHT22;63461;51.416;6.758;2023-05-07T12:59:37;21.20;99.90
74901;DHT22;63461;51.416;6.758;2023-05-07T13:02:04;21.20;99.90
74901;DHT22;63461;51.416;6.758;2023-05-07T13:04:30;21.20;99.90
74901;DHT22;63461;51.416;6.758;2023-05-07T13:06:56;21.20;99.90
74901;DHT22;63461;51.416;6.758;2023-05-07T13:09:22;21.10;99.90
74901;DHT22;63461;51.416;6.758;2023-05-07T13:11:48;21.10;99.90
74901;DHT22;63461;51.416;6.758;2023-05-07T13:14:13;21.00;99.90
74901;DHT22;63461;51.416;6.758;2023-05-07T13:16:39;21.00;99.90
74901;DHT22;63461;51.416;6.758;2023-05-07T13:19:05;21.00;99.90
74901;DHT22;63461;51.416;6.758;2023-05-07T13:21:31;21.00;99.90
74901;DHT22;63461;51.416;6.758;2023-05-07T13:23:59;21.00;99.90
74901;DHT22;63461;51.416;6.758;2023-05-07T13:26:26;21.00;99.90
74901;DHT22;63461;51.416;6.758;2023-05-07T13:28:55;21.00;99.90
74901;DHT22;63461;51.416;6.758;2023-05-07T13:31:20;21.00;99.90
74901;DHT22;63461;51.416;6.758;2023-05-07T13:33:47;21.00;99.90
74901;DHT22;63461;51.416;6.758;2023-05-07T13:36:13;21.00;99.90
74901;DHT22;63461;51.416;6.758;2023-05-07T13:38:39;20.90;99.90
74901;DHT22;63461;51.416;6.758;2023-05-07T13:41:05;20.90;99.90
74901;DHT22;63461;51.416;6.758;2023-05-07T13:43:31;20.90;99.90
74901;DHT22;63461;51.416;6.758;2023-05-07T13:45:59;20.80;99.90
74901;DHT22;63461;51.416;6.758;2023-05-07T13:48:26;20.70;99.90
74901;DHT22;63461;51.416;6.758;2023-05-07T13:50:52;20.70;99.90
74901;DHT22;63461;51.416;6.758;2023-05-07T13:53:18;20.60;99.90
74901;DHT22;63461;51.416;6.758;2023-05-07T13:55:44;20.50;99.90
74901;DHT22;63461;51.416;6.758;2023-05-07T13:58:10;20.50;99.90
74901;DHT22;63461;51.416;6.758;2023-05-07T14:00:37;20.60;99.90
74901;DHT22;63461;51.416;6.758;2023-05-07T14:03:04;20.50;99.90
74901;DHT22;63461;51.416;6.758;2023-05-07T14:05:30;20.50;99.90
74901;DHT22;63461;51.416;6.758;2023-05-07T14:07:57;20.40;99.90
74901;DHT22;63461;51.416;6.758;2023-05-07T14:10:24;20.30;99.90
74901;DHT22;63461;51.416;6.758;2023-05-07T14:12:50;20.20;99.90
74901;DHT22;63461;51.416;6.758;2023-05-07T14:15:16;20.00;99.90
74901;DHT22;63461;51.416;6.758;2023-05-07T14:17:42;20.00;99.90
74901;DHT22;63461;51.416;6.758;2023-05-07T14:20:09;19.90;99.90
74901;DHT22;63461;51.416;6.758;2023-05-07T14:22:36;19.80;99.90
74901;DHT22;63461;51.416;6.758;2023-05-07T14:25:02;19.80;99.90
74901;DHT22;63461;51.416;6.758;2023-05-07T14:27:28;19.60;99.90
74901;DHT22;63461;51.416;6.758;2023-05-07T14:29:53;19.50;99.90
74901;DHT22;63461;51.416;6.758;2023-05-07T14:32:20;19.50;99.90
74901;DHT22;63461;51.416;6.758;2023-05-07T14:34:46;19.40;99.90
74901;DHT22;63461;51.416;6.758;2023-05-07T14:37:12;19.40;99.90
74901;DHT22;63461;51.416;6.758;2023-05-07T14:39:38;19.40;99.90
74901;DHT22;63461;51.416;6.758;2023-05-07T14:42:04;19.20;99.90
74901;DHT22;63461;51.416;6.758;2023-05-07T14:44:30;19.20;99.90
74901;DHT22;63461;51.416;6.758;2023-05-07T14:46:56;19.20;99.90
74901;DHT22;63461;51.416;6.758;2023-05-07T14:49:22;19.20;99.90
74901;DHT22;63461;51.416;6.758;2023-05-07T14:51:49;19.10;99.90
74901;DHT22;63461;51.416;6.758;2023-05-07T14:54:15;19.10;99.90
74901;DHT22;63461;51.416;6.758;2023-05-07T14:56:41;19.00;99.90
74901;DHT22;63461;51.416;6.758;2023-05-07T14:59:08;18.90;99.90
74901;DHT22;63461;51.416;6.758;2023-05-07T15:01:35;18.90;99.90
74901;DHT22;63461;51.416;6.758;2023-05-07T15:04:03;18.90;99.90
74901;DHT22;63461;51.416;6.758;2023-05-07T15:06:29;18.90;99.90
74901;DHT22;63461;51.416;6.758;2023-05-07T15:08:55;18.80;99.90
74901;DHT22;63461;51.416;6.758;2023-05-07T15:11:20;18.90;99.90
74901;DHT22;63461;51.416;6.758;2023-05-07T15:13:46;18.90;99.90
74901;DHT22;63461;51.416;6.758;2023-05-07T15:16:12;18.90;99.90
74901;DHT22;63461;51.416;6.758;2023-05-07T15:18:38;18.90;99.90
74901;DHT22;63461;51.416;6.758;2023-05-07T15:21:04;19.10;99.90
74901;DHT22;63461;51.416;6.758;2023-05-07T15:23:32;19.10;99.90
74901;DHT22;63461;51.416;6.758;2023-05-07T15:25:57;19.10;99.90
74901;DHT22;63461;51.416;6.758;2023-05-07T15:28:23;19.10;99.90
74901;DHT22;63461;51.416;6.758;2023-05-07T15:30:50;19.20;99.90
74901;DHT22;63461;51.416;6.758;2023-05-07T15:33:16;19.20;99.90
74901;DHT22;63461;51.416;6.758;2023-05-07T15:35:42;19.20;99.90
74901;DHT22;63461;51.416;6.758;2023-05-07T15:38:08;19.20;99.90
74901;DHT22;63461;51.416;6.758;2023-05-07T15:40:34;19.30;99.90
74901;DHT22;63461;51.416;6.758;2023-05-07T15:43:03;19.40;99.90